Time;durP1;ratioP1;P1;durP2;ratioP2;P2;SDS_P1;SDS_P2;PMS_P1;PMS_P2;Temp;Humidity;BMP_temperature;BMP_pressure;BME280_temperature;BME280_humidity;BME280_pressure;Samples;Min_cycle;Max_cycle;Signal;HPM_P1;HPM_P2
2023/04/08 00:00:00;;;;;;;13.83;12.53;;;5.50;78.90;;;;;;6286479;28;20310;-84
2023/04/08 00:03:05;;;;;;;15.93;14.43;;;5.50;78.90;;;;;;6283748;28;20736;-82
2023/04/08 00:06:08;;;;;;;15.47;13.87;;;5.50;78.80;;;;;;6281179;28;20363;-83
2023/04/08 00:09:11;;;;;;;15.80;14.23;;;5.50;78.70;;;;;;6285783;28;20264;-83
2023/04/08 00:12:14;;;;;;;17.27;15.30;;;5.50;78.80;;;;;;6278710;28;20237;-83
2023/04/08 00:15:18;;;;;;;15.93;14.23;;;5.50;79.00;;;;;;6285113;28;20472;-82
2023/04/08 00:18:22;;;;;;;17.90;14.37;;;5.50;79.00;;;;;;6285088;28;20233;-83
2023/04/08 00:21:26;;;;;;;17.00;15.17;;;5.50;79.00;;;;;;6285197;28;20239;-83
2023/04/08 00:24:29;;;;;;;18.60;16.33;;;5.50;79.10;;;;;;6283470;28;20368;-82
2023/04/08 00:27:32;;;;;;;18.33;15.27;;;5.50;79.00;;;;;;6289962;28;20547;-84
2023/04/08 00:30:36;;;;;;;18.07;15.87;;;5.50;79.10;;;;;;6290483;28;20850;-80
2023/04/08 00:33:40;;;;;;;25.87;17.70;;;5.50;79.00;;;;;;6286088;28;20272;-84
2023/04/08 00:36:43;;;;;;;19.53;17.43;;;5.50;79.10;;;;;;6292078;28;20225;-82
2023/04/08 00:39:46;;;;;;;25.10;18.57;;;5.50;79.00;;;;;;6281052;28;20320;-84
2023/04/08 00:42:50;;;;;;;23.20;18.07;;;5.50;78.90;;;;;;6277742;28;20233;-79
2023/04/08 00:45:53;;;;;;;23.37;19.53;;;5.50;79.00;;;;;;6290050;28;20476;-84
2023/04/08 00:48:58;;;;;;;25.77;19.23;;;5.50;79.00;;;;;;6287647;28;20229;-82
2023/04/08 00:52:01;;;;;;;26.43;19.87;;;5.50;79.00;;;;;;6290496;28;20261;-83
2023/04/08 00:55:05;;;;;;;23.80;18.83;;;5.50;78.80;;;;;;6292894;28;20233;-84
2023/04/08 00:58:08;;;;;;;28.27;20.57;;;5.50;78.90;;;;;;6294713;28;20230;-79
2023/04/08 01:01:20;;;;;;;29.50;20.73;;;5.50;79.00;;;;;;6312399;28;20234;-77
2023/04/08 01:04:29;;;;;;;25.50;20.30;;;5.50;79.00;;;;;;6308987;28;20649;-76
2023/04/08 01:07:35;;;;;;;31.27;20.93;;;5.50;79.10;;;;;;6316029;28;20240;-79
2023/04/08 01:10:41;;;;;;;30.43;20.53;;;5.50;79.10;;;;;;6316127;28;20221;-79
2023/04/08 01:13:46;;;;;;;27.47;21.10;;;5.50;79.10;;;;;;6291871;28;20282;-80
2023/04/08 01:16:49;;;;;;;31.40;21.83;;;5.50;79.10;;;;;;6292247;28;20491;-82
2023/04/08 01:19:56;;;;;;;30.83;21.63;;;5.50;79.10;;;;;;6292701;28;20616;-82
2023/04/08 01:23:09;;;;;;;30.70;21.70;;;5.50;79.10;;;;;;6290546;28;20739;-82
2023/04/08 01:26:22;;;;;;;32.27;20.93;;;5.50;79.00;;;;;;6290382;28;20514;-81
2023/04/08 01:29:26;;;;;;;28.03;20.60;;;5.50;79.10;;;;;;6290145;28;20308;-81
2023/04/08 01:32:32;;;;;;;29.93;21.47;;;5.50;79.10;;;;;;6276006;28;20272;-84
2023/04/08 01:35:36;;;;;;;30.77;21.63;;;5.50;79.10;;;;;;6289140;28;20689;-82
2023/04/08 01:38:39;;;;;;;32.27;22.80;;;5.50;79.20;;;;;;6288507;28;20240;-80
2023/04/08 01:41:45;;;;;;;27.57;21.60;;;5.50;79.20;;;;;;6286979;28;20779;-82
2023/04/08 01:44:48;;;;;;;33.83;23.60;;;5.50;79.20;;;;;;6289425;28;20679;-81
2023/04/08 01:47:53;;;;;;;37.37;23.53;;;5.50;79.10;;;;;;6288447;28;20244;-82
2023/04/08 01:50:57;;;;;;;31.90;22.33;;;5.50;79.20;;;;;;6281319;28;20527;-79
2023/04/08 01:54:00;;;;;;;31.50;22.27;;;5.50;79.10;;;;;;6288456;28;20834;-83
2023/04/08 01:57:07;;;;;;;35.27;23.60;;;5.50;79.00;;;;;;6287972;28;20282;-83
2023/04/08 02:00:13;;;;;;;33.77;23.40;;;5.50;79.10;;;;;;6281711;28;20248;-82
2023/04/08 02:03:24;;;;;;;35.33;24.60;;;5.50;79.10;;;;;;6274881;28;20602;-78
2023/04/08 02:06:28;;;;;;;33.17;22.00;;;5.50;79.00;;;;;;6274712;28;20260;-84
2023/04/08 02:09:31;;;;;;;41.00;25.67;;;5.50;79.10;;;;;;6287552;28;20248;-83
2023/04/08 02:12:36;;;;;;;37.00;23.73;;;5.50;79.00;;;;;;6288083;28;20248;-82
2023/04/08 02:15:46;;;;;;;34.20;22.87;;;5.50;79.00;;;;;;6281055;28;20233;-84
2023/04/08 02:18:58;;;;;;;33.53;21.20;;;5.60;79.00;;;;;;6287698;28;20260;-81
2023/04/08 02:22:06;;;;;;;36.87;25.07;;;5.60;78.90;;;;;;6287900;28;20245;-81
2023/04/08 02:25:13;;;;;;;38.63;24.93;;;5.60;79.00;;;;;;6287794;28;20564;-82
2023/04/08 02:28:19;;;;;;;32.37;22.87;;;5.60;78.70;;;;;;6287000;28;20730;-80
2023/04/08 02:31:23;;;;;;;35.27;23.97;;;5.60;78.70;;;;;;6285061;28;20241;-80
2023/04/08 02:34:27;;;;;;;37.33;23.70;;;5.60;78.70;;;;;;6287465;28;20259;-81
2023/04/08 02:37:30;;;;;;;31.60;22.60;;;5.60;78.90;;;;;;6286572;28;20716;-79
2023/04/08 02:40:35;;;;;;;38.57;24.27;;;5.60;78.80;;;;;;6287011;28;20802;-81
2023/04/08 02:43:40;;;;;;;37.43;25.87;;;5.60;78.80;;;;;;6281822;28;20229;-80
2023/04/08 02:46:43;;;;;;;32.77;23.43;;;5.60;78.80;;;;;;6286246;28;20238;-81
2023/04/08 02:49:46;;;;;;;35.20;23.93;;;5.60;78.80;;;;;;6282822;28;20240;-81
2023/04/08 02:52:49;;;;;;;33.77;23.23;;;5.60;78.70;;;;;;6286188;28;20229;-83
2023/04/08 02:55:52;;;;;;;40.00;25.63;;;5.60;78.80;;;;;;6286919;28;20240;-84
2023/04/08 02:58:57;;;;;;;39.73;24.27;;;5.60;78.90;;;;;;6280537;28;20372;-81
2023/04/08 03:02:00;;;;;;;37.90;23.83;;;5.60;78.70;;;;;;6283669;28;20241;-81
2023/04/08 03:05:04;;;;;;;38.63;24.63;;;5.60;78.70;;;;;;6286595;28;20233;-80
2023/04/08 03:08:07;;;;;;;35.50;24.03;;;5.60;78.80;;;;;;6286060;28;20244;-81
2023/04/08 03:11:10;;;;;;;40.40;25.67;;;5.60;78.80;;;;;;6285487;28;20229;-83
2023/04/08 03:14:16;;;;;;;38.80;25.77;;;5.60;78.70;;;;;;6286743;28;20615;-82
2023/04/08 03:17:20;;;;;;;35.30;24.00;;;5.60;78.70;;;;;;6278375;28;20609;-80
2023/04/08 03:20:23;;;;;;;40.27;25.13;;;5.60;78.90;;;;;;6283862;28;20240;-83
2023/04/08 03:23:26;;;;;;;35.40;23.67;;;5.50;79.00;;;;;;6298556;28;20225;-77
2023/04/08 03:26:29;;;;;;;38.50;24.87;;;5.60;79.00;;;;;;6318066;28;20230;-78
2023/04/08 03:29:34;;;;;;;39.60;25.57;;;5.60;78.90;;;;;;6307177;28;20308;-76
2023/04/08 03:32:37;;;;;;;39.37;24.33;;;5.60;79.00;;;;;;6303722;28;20221;-75
2023/04/08 03:35:40;;;;;;;44.37;26.70;;;5.60;78.90;;;;;;6311972;28;20717;-81
2023/04/08 03:38:44;;;;;;;41.50;25.30;;;5.60;79.00;;;;;;6281510;28;20229;-81
2023/04/08 03:41:47;;;;;;;42.17;26.33;;;5.60;79.00;;;;;;6279372;28;20245;-82
2023/04/08 03:44:52;;;;;;;39.07;25.03;;;5.60;79.00;;;;;;6283280;28;20617;-83
2023/04/08 03:47:55;;;;;;;40.50;26.10;;;5.60;79.00;;;;;;6285908;28;20263;-77
2023/04/08 03:50:58;;;;;;;45.37;25.77;;;5.60;79.00;;;;;;6284580;28;20530;-83
2023/04/08 03:54:01;;;;;;;37.53;25.10;;;5.60;79.00;;;;;;6286132;28;20481;-80
2023/04/08 03:57:04;;;;;;;41.23;26.13;;;5.60;78.90;;;;;;6290265;28;20247;-80
2023/04/08 04:00:10;;;;;;;41.60;26.07;;;5.60;79.00;;;;;;6283007;28;20283;-80
2023/04/08 04:03:14;;;;;;;45.60;27.33;;;5.70;78.90;;;;;;6280772;28;20362;-79
2023/04/08 04:06:17;;;;;;;42.70;26.90;;;5.60;78.90;;;;;;6272958;28;20716;-78
2023/04/08 04:09:20;;;;;;;44.80;27.23;;;5.60;78.80;;;;;;6277301;28;20632;-76
2023/04/08 04:12:23;;;;;;;41.90;24.17;;;5.60;78.90;;;;;;6279381;28;20484;-79
2023/04/08 04:15:28;;;;;;;45.00;27.23;;;5.60;79.00;;;;;;6282107;28;20241;-79
2023/04/08 04:18:31;;;;;;;48.77;28.53;;;5.60;79.10;;;;;;6284538;28;20241;-77
2023/04/08 04:21:34;;;;;;;45.83;27.80;;;5.60;79.00;;;;;;6280272;28;20241;-78
2023/04/08 04:24:37;;;;;;;51.67;27.40;;;5.60;79.00;;;;;;6284890;28;20737;-78
2023/04/08 04:27:40;;;;;;;43.00;27.20;;;5.60;79.00;;;;;;6284794;28;20793;-80
2023/04/08 04:30:45;;;;;;;45.80;27.73;;;5.60;79.00;;;;;;6284733;28;20225;-79
2023/04/08 04:33:48;;;;;;;50.13;28.70;;;5.60;79.00;;;;;;6284222;28;20243;-81
2023/04/08 04:36:52;;;;;;;51.10;29.03;;;5.60;79.00;;;;;;6277525;28;20264;-80
2023/04/08 04:39:55;;;;;;;47.90;27.93;;;5.70;78.90;;;;;;6285412;28;20233;-79
2023/04/08 04:42:58;;;;;;;48.33;29.07;;;5.70;78.90;;;;;;6285052;28;20280;-78
2023/04/08 04:46:05;;;;;;;45.57;28.00;;;5.70;78.60;;;;;;6277107;28;20622;-78
2023/04/08 04:49:09;;;;;;;45.77;27.83;;;5.70;78.70;;;;;;6285154;28;20367;-81
2023/04/08 04:52:12;;;;;;;47.07;28.13;;;5.70;78.70;;;;;;6278018;28;20233;-80
2023/04/08 04:55:15;;;;;;;45.80;28.13;;;5.70;78.70;;;;;;6284217;28;20240;-79
2023/04/08 04:58:19;;;;;;;41.93;27.30;;;5.80;78.60;;;;;;6284577;28;20660;-80
2023/04/08 05:01:23;;;;;;;44.67;26.60;;;5.70;78.60;;;;;;6281629;28;20261;-79
2023/04/08 05:04:26;;;;;;;44.33;27.47;;;5.70;78.70;;;;;;6276521;28;20237;-80
2023/04/08 05:07:30;;;;;;;43.63;26.07;;;5.70;78.80;;;;;;6283761;28;20679;-80
2023/04/08 05:10:33;;;;;;;47.13;27.83;;;5.70;78.70;;;;;;6282022;28;20245;-79
2023/04/08 05:13:36;;;;;;;49.33;28.00;;;5.70;78.90;;;;;;6288655;28;20701;-76
2023/04/08 05:16:40;;;;;;;41.03;26.23;;;5.80;78.70;;;;;;6286414;28;20256;-79
2023/04/08 05:19:43;;;;;;;44.93;28.00;;;5.80;78.70;;;;;;6287407;28;20226;-79
2023/04/08 05:22:46;;;;;;;51.57;29.87;;;5.80;78.70;;;;;;6286984;28;20233;-81
2023/04/08 05:25:49;;;;;;;44.87;29.53;;;5.80;78.60;;;;;;6288225;28;20240;-80
2023/04/08 05:28:53;;;;;;;50.73;29.80;;;5.80;78.70;;;;;;6281486;28;20548;-79
2023/04/08 05:31:57;;;;;;;47.30;29.07;;;5.80;78.70;;;;;;6283722;28;20233;-79
2023/04/08 05:35:02;;;;;;;47.93;30.03;;;5.90;78.60;;;;;;6286975;28;20611;-79
2023/04/08 05:38:06;;;;;;;44.20;27.63;;;5.90;78.60;;;;;;6285199;28;20281;-80
2023/04/08 05:41:09;;;;;;;44.73;28.27;;;6.00;78.70;;;;;;6288032;28;20233;-79
2023/04/08 05:44:12;;;;;;;44.33;28.73;;;6.00;78.60;;;;;;6287590;28;20241;-80
2023/04/08 05:47:17;;;;;;;47.93;28.63;;;6.00;78.50;;;;;;6276601;28;20663;-79
2023/04/08 05:50:20;;;;;;;39.97;26.73;;;6.10;78.50;;;;;;6311356;28;20237;-75
2023/04/08 05:53:24;;;;;;;41.43;27.67;;;6.10;78.40;;;;;;6316942;28;20252;-76
2023/04/08 05:56:27;;;;;;;40.33;27.47;;;6.10;78.40;;;;;;6309096;28;20237;-80
2023/04/08 05:59:30;;;;;;;47.60;30.07;;;6.10;78.50;;;;;;6317088;28;20758;-78
2023/04/08 06:02:35;;;;;;;45.33;28.70;;;6.10;78.40;;;;;;6289899;28;20241;-81
2023/04/08 06:05:38;;;;;;;49.97;31.23;;;6.10;78.40;;;;;;6288045;28;20241;-79
2023/04/08 06:08:41;;;;;;;47.97;30.50;;;6.20;78.40;;;;;;6287344;28;20233;-79
2023/04/08 06:11:46;;;;;;;46.77;29.43;;;6.20;78.40;;;;;;6285362;28;20607;-81
2023/04/08 06:14:53;;;;;;;43.03;28.83;;;6.20;78.40;;;;;;6288280;28;20270;-78
2023/04/08 06:17:57;;;;;;;51.60;32.20;;;6.30;78.30;;;;;;6285629;28;20237;-79
2023/04/08 06:21:01;;;;;;;46.37;28.93;;;6.40;78.00;;;;;;6286403;28;20590;-79
2023/04/08 06:24:04;;;;;;;52.43;31.47;;;6.40;78.20;;;;;;6287049;28;20240;-80
2023/04/08 06:27:07;;;;;;;47.93;29.37;;;6.50;77.90;;;;;;6286901;28;20362;-79
2023/04/08 06:30:10;;;;;;;45.07;28.20;;;6.70;77.50;;;;;;6287450;28;20733;-78
2023/04/08 06:33:15;;;;;;;46.63;29.33;;;6.70;77.20;;;;;;6285080;28;20233;-78
2023/04/08 06:36:18;;;;;;;51.07;30.03;;;6.80;77.20;;;;;;6286140;28;20230;-79
2023/04/08 06:39:21;;;;;;;46.43;28.70;;;6.80;77.10;;;;;;6286298;28;20236;-80
2023/04/08 06:42:24;;;;;;;46.10;30.60;;;6.90;76.70;;;;;;6280185;28;20731;-78
2023/04/08 06:45:28;;;;;;;52.40;30.67;;;6.90;76.60;;;;;;6307398;28;20247;-80
2023/04/08 06:48:36;;;;;;;50.17;28.70;;;6.90;76.50;;;;;;6305449;28;20245;-77
2023/04/08 06:51:39;;;;;;;43.27;28.50;;;7.00;76.40;;;;;;6310845;28;20237;-77
2023/04/08 06:54:42;;;;;;;51.40;30.20;;;7.00;76.40;;;;;;6318235;28;20365;-75
2023/04/08 06:57:46;;;;;;;48.57;30.67;;;7.00;76.50;;;;;;6316749;28;20233;-77
2023/04/08 07:00:49;;;;;;;48.47;29.77;;;7.00;76.50;;;;;;6317717;28;20451;-75
2023/04/08 07:03:53;;;;;;;41.47;26.37;;;7.10;76.10;;;;;;6313910;28;20227;-75
2023/04/08 07:06:57;;;;;;;43.17;28.73;;;7.20;76.10;;;;;;6307419;28;20248;-80
2023/04/08 07:10:00;;;;;;;44.47;29.17;;;7.20;76.00;;;;;;6288815;28;20235;-78
2023/04/08 07:13:04;;;;;;;48.53;30.00;;;7.20;75.90;;;;;;6288132;28;20253;-76
2023/04/08 07:16:07;;;;;;;46.90;29.87;;;7.20;75.90;;;;;;6285311;28;20241;-80
2023/04/08 07:19:11;;;;;;;44.53;28.70;;;7.40;75.80;;;;;;6280686;28;20247;-78
2023/04/08 07:22:15;;;;;;;46.77;28.50;;;7.50;75.50;;;;;;6287423;28;20240;-80
2023/04/08 07:25:18;;;;;;;48.03;28.07;;;7.60;75.00;;;;;;6287706;28;20458;-78
2023/04/08 07:28:21;;;;;;;46.47;30.17;;;7.80;74.80;;;;;;6287914;28;20316;-79
2023/04/08 07:31:27;;;;;;;46.37;29.63;;;7.80;74.50;;;;;;6286023;28;20602;-80
2023/04/08 07:34:31;;;;;;;47.67;28.40;;;7.80;74.30;;;;;;6288049;28;20314;-75
2023/04/08 07:37:34;;;;;;;49.67;30.27;;;8.00;74.00;;;;;;6316821;28;20237;-74
2023/04/08 07:40:38;;;;;;;45.83;28.77;;;8.10;73.70;;;;;;6310731;28;20312;-77
2023/04/08 07:43:40;;;;;;;40.47;27.53;;;8.10;73.70;;;;;;6317835;28;20233;-76
2023/04/08 07:46:48;;;;;;;46.67;27.17;;;8.10;73.40;;;;;;6315242;28;20245;-75
2023/04/08 07:49:53;;;;;;;42.80;27.63;;;8.10;73.20;;;;;;6312274;28;20240;-76
2023/04/08 07:52:56;;;;;;;41.30;28.10;;;8.10;73.40;;;;;;6309230;28;20381;-78
2023/04/08 07:56:00;;;;;;;46.10;28.83;;;8.10;73.30;;;;;;6288991;28;20229;-81
2023/04/08 07:59:03;;;;;;;47.30;29.20;;;8.10;73.30;;;;;;6287676;28;20232;-75
2023/04/08 08:02:06;;;;;;;39.83;28.20;;;8.10;73.50;;;;;;6291834;28;20236;-78
2023/04/08 08:05:11;;;;;;;39.17;26.03;;;8.20;73.50;;;;;;6310228;28;20233;-79
2023/04/08 08:08:14;;;;;;;44.57;28.90;;;8.30;73.50;;;;;;6302968;28;20237;-77
2023/04/08 08:11:17;;;;;;;40.23;26.67;;;8.40;73.20;;;;;;6309184;28;20237;-73
2023/04/08 08:14:20;;;;;;;39.63;27.07;;;8.50;72.30;;;;;;6306157;28;20324;-77
2023/04/08 08:17:23;;;;;;;39.13;26.73;;;8.50;72.70;;;;;;6306373;28;20255;-77
2023/04/08 08:20:31;;;;;;;37.67;27.00;;;8.60;72.50;;;;;;6311209;28;20240;-77
2023/04/08 08:23:37;;;;;;;38.33;26.63;;;8.80;72.50;;;;;;6312780;28;20229;-75
2023/04/08 08:26:40;;;;;;;40.27;27.83;;;8.90;71.70;;;;;;6315830;28;20245;-75
2023/04/08 08:29:43;;;;;;;40.63;28.07;;;9.00;71.80;;;;;;6311692;28;20239;-79
2023/04/08 08:32:47;;;;;;;40.43;25.03;;;9.20;71.50;;;;;;6314962;28;20506;-76
2023/04/08 08:35:52;;;;;;;43.10;27.97;;;9.20;71.40;;;;;;6313522;28;20224;-78
2023/04/08 08:38:55;;;;;;;37.93;26.20;;;9.40;70.70;;;;;;6306694;28;20309;-75
2023/04/08 08:41:58;;;;;;;37.40;24.40;;;9.50;69.80;;;;;;6307804;28;20255;-77
2023/04/08 08:45:02;;;;;;;41.63;26.57;;;9.60;70.30;;;;;;6306587;28;20332;-77
2023/04/08 08:48:07;;;;;;;37.17;26.00;;;9.70;69.60;;;;;;6309318;28;20230;-77
2023/04/08 08:51:13;;;;;;;37.80;26.03;;;9.70;69.60;;;;;;6311861;28;20241;-76
2023/04/08 08:54:16;;;;;;;38.30;26.47;;;9.90;69.90;;;;;;6315862;28;20231;-76
2023/04/08 08:57:19;;;;;;;36.50;26.97;;;10.00;70.20;;;;;;6322348;28;20272;-77
2023/04/08 09:00:31;;;;;;;39.70;25.97;;;10.10;69.50;;;;;;6321573;28;20233;-76
2023/04/08 09:03:37;;;;;;;35.90;25.40;;;10.20;68.70;;;;;;6319647;28;20229;-76
2023/04/08 09:06:43;;;;;;;34.63;25.03;;;10.10;68.60;;;;;;6319494;28;20237;-77
2023/04/08 09:09:50;;;;;;;32.03;23.97;;;10.30;67.90;;;;;;6317977;28;20233;-77
2023/04/08 09:12:56;;;;;;;37.10;25.70;;;10.30;67.90;;;;;;6303074;28;20365;-78
2023/04/08 09:16:03;;;;;;;33.10;25.33;;;10.20;67.70;;;;;;6280779;28;20251;-79
2023/04/08 09:19:11;;;;;;;36.43;24.17;;;10.20;67.80;;;;;;6287978;28;20312;-79
2023/04/08 09:22:15;;;;;;;32.30;24.33;;;10.20;67.90;;;;;;6286207;28;20732;-77
2023/04/08 09:25:24;;;;;;;32.07;24.10;;;10.20;67.80;;;;;;6287267;28;20237;-79
2023/04/08 09:28:27;;;;;;;36.97;24.37;;;10.20;67.70;;;;;;6288818;28;20272;-75
2023/04/08 09:31:32;;;;;;;32.17;24.03;;;10.20;67.70;;;;;;6290419;28;20249;-82
2023/04/08 09:34:35;;;;;;;36.70;25.47;;;10.30;67.60;;;;;;6284633;28;20237;-79
2023/04/08 09:37:39;;;;;;;31.87;23.50;;;10.20;67.60;;;;;;6287844;28;20237;-79
2023/04/08 09:40:44;;;;;;;33.20;24.60;;;10.10;67.90;;;;;;6291463;28;20263;-80
2023/04/08 09:43:49;;;;;;;35.57;24.87;;;10.10;68.40;;;;;;6284114;28;20254;-80
2023/04/08 09:47:01;;;;;;;30.33;23.97;;;10.10;68.40;;;;;;6288341;28;20248;-77
2023/04/08 09:50:08;;;;;;;33.13;24.83;;;10.30;68.00;;;;;;6294178;28;20244;-78
2023/04/08 09:53:19;;;;;;;33.17;23.83;;;10.40;67.80;;;;;;6288049;28;20746;-78
2023/04/08 09:56:30;;;;;;;35.63;24.47;;;10.50;67.40;;;;;;6288048;28;20230;-80
2023/04/08 09:59:37;;;;;;;34.23;23.97;;;10.60;67.50;;;;;;6290198;28;20237;-78
2023/04/08 10:02:47;;;;;;;32.13;23.93;;;10.80;67.40;;;;;;6286286;28;20245;-79
2023/04/08 10:05:52;;;;;;;35.60;24.43;;;11.00;66.90;;;;;;6278145;28;20244;-78
2023/04/08 10:08:58;;;;;;;33.73;25.20;;;11.10;66.20;;;;;;6277840;27;20260;-80
2023/04/08 10:12:03;;;;;;;28.83;22.43;;;11.20;66.00;;;;;;6287465;28;20369;-79
2023/04/08 10:15:27;;;;;;;32.40;24.37;;;11.20;66.00;;;;;;6283782;28;20576;-78
2023/04/08 10:18:35;;;;;;;27.97;23.23;;;11.30;65.30;;;;;;6275965;28;20662;-79
2023/04/08 10:21:42;;;;;;;28.10;22.53;;;11.50;65.70;;;;;;6278252;28;20326;-79
2023/04/08 10:25:27;;;;;;;28.43;23.40;;;11.70;65.10;;;;;;6287024;28;20255;-79
2023/04/08 10:28:30;;;;;;;31.23;23.27;;;11.70;64.30;;;;;;6284165;28;20717;-79
2023/04/08 10:31:40;;;;;;;27.20;22.30;;;11.70;64.60;;;;;;6287483;28;20268;-79
2023/04/08 10:34:53;;;;;;;35.00;24.57;;;11.90;64.80;;;;;;6278092;28;20655;-78
2023/04/08 10:37:57;;;;;;;28.23;21.80;;;12.00;63.20;;;;;;6273660;28;20343;-77
2023/04/08 10:41:01;;;;;;;28.20;22.00;;;11.90;63.30;;;;;;6302878;28;20238;-79
2023/04/08 10:44:04;;;;;;;31.03;23.47;;;12.00;63.40;;;;;;6300402;28;20233;-78
2023/04/08 10:47:08;;;;;;;28.63;21.97;;;11.90;63.60;;;;;;6288579;28;20323;-83
2023/04/08 10:50:15;;;;;;;25.63;22.40;;;12.00;63.20;;;;;;6280192;28;20615;-81
2023/04/08 10:53:18;;;;;;;26.80;21.93;;;12.00;63.40;;;;;;6277308;28;20256;-79
2023/04/08 10:56:24;;;;;;;24.67;20.57;;;12.00;61.80;;;;;;6281067;28;20239;-80
2023/04/08 10:59:31;;;;;;;25.63;21.00;;;11.90;62.10;;;;;;6286186;28;20328;-81
2023/04/08 11:02:38;;;;;;;26.50;20.50;;;11.90;62.20;;;;;;6284968;28;20700;-80
2023/04/08 11:05:42;;;;;;;27.27;19.97;;;12.00;62.00;;;;;;6278738;28;20240;-82
2023/04/08 11:08:46;;;;;;;23.33;19.93;;;12.00;61.60;;;;;;6285622;28;20834;-81
2023/04/08 11:11:52;;;;;;;24.73;19.53;;;12.20;61.90;;;;;;6299391;28;20228;-80
2023/04/08 11:14:55;;;;;;;25.67;20.63;;;12.20;61.20;;;;;;6296674;28;20247;-79
2023/04/08 11:17:59;;;;;;;23.00;19.10;;;12.10;60.70;;;;;;6294402;28;20237;-79
2023/04/08 11:21:02;;;;;;;22.97;19.07;;;12.00;61.40;;;;;;6287589;28;20303;-81
2023/04/08 11:24:13;;;;;;;24.37;20.10;;;12.00;61.10;;;;;;6284611;28;20358;-81
2023/04/08 11:27:17;;;;;;;21.93;19.63;;;12.10;61.00;;;;;;6289776;28;20230;-80
2023/04/08 11:30:21;;;;;;;23.67;20.07;;;12.30;61.20;;;;;;6286380;28;20237;-79
2023/04/08 11:33:26;;;;;;;24.17;20.07;;;12.30;61.20;;;;;;6281609;28;20244;-79
2023/04/08 11:36:30;;;;;;;26.30;19.93;;;12.30;61.50;;;;;;6295458;28;20253;-78
2023/04/08 11:39:42;;;;;;;21.23;18.53;;;12.50;60.50;;;;;;6285289;28;20233;-80
2023/04/08 11:42:47;;;;;;;19.63;17.13;;;12.70;59.80;;;;;;6280913;28;20241;-82
2023/04/08 11:45:51;;;;;;;18.17;15.93;;;12.80;59.60;;;;;;6295068;28;20310;-78
2023/04/08 11:48:58;;;;;;;21.43;18.53;;;12.70;59.80;;;;;;6288306;28;20241;-81
2023/04/08 11:52:02;;;;;;;18.83;16.87;;;12.80;59.60;;;;;;6284005;28;20235;-82
2023/04/08 11:55:06;;;;;;;19.50;16.67;;;12.80;59.20;;;;;;6286715;28;20661;-82
2023/04/08 11:58:10;;;;;;;18.03;16.23;;;12.80;58.70;;;;;;6285864;28;20240;-78
2023/04/08 12:01:13;;;;;;;18.50;16.70;;;12.70;58.90;;;;;;6288564;28;20243;-82
2023/04/08 12:04:16;;;;;;;19.67;17.77;;;12.70;59.20;;;;;;6292764;28;20743;-81
2023/04/08 12:07:20;;;;;;;19.60;17.20;;;12.70;58.90;;;;;;6294021;28;20241;-81
2023/04/08 12:10:24;;;;;;;19.80;17.67;;;12.50;58.90;;;;;;6287079;28;20248;-80
2023/04/08 12:13:30;;;;;;;21.10;18.80;;;12.50;59.60;;;;;;6285937;28;20256;-83
2023/04/08 12:16:33;;;;;;;22.20;17.90;;;12.40;60.00;;;;;;6288433;28;20314;-80
2023/04/08 12:19:36;;;;;;;23.53;17.87;;;12.50;60.40;;;;;;6301430;28;20258;-81
2023/04/08 12:22:40;;;;;;;18.70;16.70;;;12.50;59.50;;;;;;6293670;28;20233;-82
2023/04/08 12:25:43;;;;;;;17.77;16.00;;;12.50;59.70;;;;;;6298194;28;20240;-82
2023/04/08 12:28:48;;;;;;;17.50;15.70;;;12.50;59.80;;;;;;6291633;28;20244;-83
2023/04/08 12:31:52;;;;;;;17.63;15.90;;;12.50;59.70;;;;;;6302971;28;20828;-81
2023/04/08 12:34:55;;;;;;;17.10;15.40;;;12.70;58.70;;;;;;6291375;28;20229;-80
2023/04/08 12:37:58;;;;;;;17.07;15.47;;;13.00;58.00;;;;;;6293557;28;20236;-81
2023/04/08 12:41:02;;;;;;;15.30;14.00;;;13.00;57.00;;;;;;6286241;28;20252;-81
2023/04/08 12:44:06;;;;;;;14.73;13.33;;;13.00;56.80;;;;;;6292994;28;20249;-81
2023/04/08 12:47:09;;;;;;;14.77;13.57;;;13.00;56.90;;;;;;6294338;28;20456;-80
2023/04/08 12:50:14;;;;;;;12.83;11.83;;;13.00;56.40;;;;;;6301170;28;20233;-80
2023/04/08 12:53:17;;;;;;;13.13;12.10;;;13.10;56.90;;;;;;6293691;28;20499;-80
2023/04/08 12:56:20;;;;;;;11.13;10.33;;;13.30;55.70;;;;;;6297890;28;20243;-79
2023/04/08 12:59:24;;;;;;;11.53;10.63;;;13.30;55.20;;;;;;6297521;28;20700;-79
2023/04/08 13:02:27;;;;;;;12.10;11.20;;;13.40;54.40;;;;;;6301570;28;20248;-78
2023/04/08 13:05:30;;;;;;;11.83;10.80;;;13.30;53.70;;;;;;6310450;28;20244;-78
2023/04/08 13:08:46;;;;;;;12.00;11.03;;;13.30;53.90;;;;;;6309254;28;20229;-78
2023/04/08 13:11:49;;;;;;;11.63;10.67;;;13.50;53.80;;;;;;6299628;28;20358;-77
2023/04/08 13:14:54;;;;;;;13.83;12.63;;;13.50;53.60;;;;;;6285957;28;20239;-82
2023/04/08 13:17:57;;;;;;;13.57;12.33;;;13.30;54.00;;;;;;6291318;28;20230;-79
2023/04/08 13:21:00;;;;;;;13.00;11.90;;;13.20;54.40;;;;;;6287337;28;20249;-78
2023/04/08 13:24:03;;;;;;;13.03;11.70;;;13.10;55.00;;;;;;6305002;28;20237;-82
2023/04/08 13:27:06;;;;;;;13.17;11.87;;;13.10;54.30;;;;;;6289218;28;20233;-79
2023/04/08 13:30:12;;;;;;;14.67;13.47;;;13.00;54.20;;;;;;6289554;28;20316;-81
2023/04/08 13:33:16;;;;;;;13.63;12.53;;;12.80;54.80;;;;;;6293843;28;20228;-81
2023/04/08 13:36:19;;;;;;;13.20;11.97;;;12.70;55.50;;;;;;6297830;28;20341;-81
2023/04/08 13:39:22;;;;;;;14.73;13.43;;;12.80;55.20;;;;;;6289983;28;20245;-77
2023/04/08 13:42:25;;;;;;;14.03;12.80;;;12.80;54.60;;;;;;6288148;28;20248;-80
2023/04/08 13:45:30;;;;;;;13.97;12.70;;;12.90;54.30;;;;;;6288033;28;20709;-81
2023/04/08 13:48:33;;;;;;;13.20;12.10;;;13.10;54.30;;;;;;6287699;28;20241;-78
2023/04/08 13:51:36;;;;;;;13.00;12.00;;;13.40;54.00;;;;;;6286148;28;20249;-81
2023/04/08 13:54:39;;;;;;;10.83;10.03;;;13.60;53.50;;;;;;6294726;28;20455;-81
2023/04/08 13:57:42;;;;;;;11.67;10.67;;;13.70;52.60;;;;;;6285027;28;20276;-81
2023/04/08 14:00:47;;;;;;;11.67;10.77;;;13.90;52.90;;;;;;6278968;28;20238;-80
2023/04/08 14:03:50;;;;;;;12.50;11.50;;;14.00;52.50;;;;;;6295595;28;20232;-80
2023/04/08 14:06:53;;;;;;;12.47;11.50;;;14.00;51.60;;;;;;6280134;28;20237;-81
2023/04/08 14:09:56;;;;;;;12.37;11.37;;;13.90;51.70;;;;;;6286590;28;20312;-80
2023/04/08 14:12:59;;;;;;;12.47;11.57;;;13.80;52.10;;;;;;6283272;28;20238;-81
2023/04/08 14:16:04;;;;;;;12.20;11.30;;;13.70;52.50;;;;;;6286664;27;20233;-80
2023/04/08 14:19:08;;;;;;;13.47;12.27;;;13.70;52.50;;;;;;6286640;28;20233;-81
2023/04/08 14:22:11;;;;;;;13.43;12.33;;;13.60;53.30;;;;;;6285536;28;20233;-77
2023/04/08 14:25:14;;;;;;;12.23;11.27;;;13.90;52.90;;;;;;6284312;28;20690;-78
2023/04/08 14:28:17;;;;;;;13.23;12.17;;;14.10;53.60;;;;;;6285619;28;20229;-82
2023/04/08 14:31:22;;;;;;;13.57;12.53;;;14.40;53.00;;;;;;6286985;28;20512;-76
2023/04/08 14:34:26;;;;;;;12.97;11.93;;;14.80;52.80;;;;;;6281337;28;20308;-80
2023/04/08 14:37:30;;;;;;;12.50;11.60;;;15.00;52.40;;;;;;6285743;28;20279;-78
2023/04/08 14:40:33;;;;;;;11.90;10.87;;;14.80;52.40;;;;;;6285954;28;20237;-78
2023/04/08 14:43:39;;;;;;;12.33;11.33;;;14.60;51.60;;;;;;6299007;28;20232;-80
2023/04/08 14:46:43;;;;;;;12.20;11.13;;;14.40;52.10;;;;;;6288520;28;20323;-79
2023/04/08 14:49:47;;;;;;;12.27;11.27;;;14.40;52.20;;;;;;6291372;28;20234;-80
2023/04/08 14:52:52;;;;;;;11.73;10.83;;;14.50;52.00;;;;;;6284165;28;20233;-77
2023/04/08 14:55:55;;;;;;;12.23;11.33;;;14.60;51.40;;;;;;6286577;28;20255;-79
2023/04/08 14:58:58;;;;;;;12.33;11.43;;;14.80;51.50;;;;;;6291733;28;20246;-81
2023/04/08 15:02:03;;;;;;;11.87;10.87;;;14.80;51.50;;;;;;6286028;28;20296;-81
2023/04/08 15:05:07;;;;;;;10.17;9.47;;;14.90;51.20;;;;;;6286657;28;20297;-78
2023/04/08 15:08:10;;;;;;;10.43;9.63;;;14.80;50.80;;;;;;6287126;28;20233;-78
2023/04/08 15:11:13;;;;;;;12.90;11.90;;;14.70;50.80;;;;;;6294565;28;20239;-81
2023/04/08 15:14:16;;;;;;;11.60;10.70;;;14.40;51.50;;;;;;6288243;28;20225;-82
2023/04/08 15:17:21;;;;;;;12.23;11.23;;;14.40;51.20;;;;;;6285916;28;20232;-81
2023/04/08 15:20:24;;;;;;;13.20;12.10;;;14.70;51.20;;;;;;6281802;28;20244;-78
2023/04/08 15:23:27;;;;;;;12.93;11.73;;;14.80;50.80;;;;;;6294262;28;20234;-81
2023/04/08 15:26:30;;;;;;;13.17;12.10;;;14.90;51.00;;;;;;6298684;28;20218;-80
2023/04/08 15:29:33;;;;;;;11.97;11.00;;;14.80;51.40;;;;;;6287577;28;20240;-79
2023/04/08 15:32:40;;;;;;;10.97;10.27;;;14.60;51.50;;;;;;6288569;28;20367;-80
2023/04/08 15:35:46;;;;;;;10.93;10.03;;;14.30;51.50;;;;;;6292004;28;20237;-81
2023/04/08 15:38:49;;;;;;;12.17;11.17;;;14.00;51.70;;;;;;6283606;28;20242;-79
2023/04/08 15:41:53;;;;;;;12.17;11.07;;;13.60;51.70;;;;;;6277465;28;20717;-78